Time;durP1;ratioP1;P1;durP2;ratioP2;P2;SDS_P1;SDS_P2;PMS_P1;PMS_P2;Temp;Humidity;BMP_temperature;BMP_pressure;BME280_temperature;BME280_humidity;BME280_pressure;Samples;Min_cycle;Max_cycle;Signal;HPM_P1;HPM_P2
2022/01/19 00:01:30;;;;;;;38.80;16.10;;;6.50;99.90;;;;;;5099516;23;20048;-78
2022/01/19 00:03:55;;;;;;;39.00;17.02;;;6.50;99.90;;;;;;5082488;28;20021;-78
2022/01/19 00:06:21;;;;;;;43.22;17.33;;;6.50;99.90;;;;;;5080963;28;20530;-75
2022/01/19 00:08:47;;;;;;;38.88;16.23;;;6.50;99.90;;;;;;5087394;28;20028;-77
2022/01/19 00:11:13;;;;;;;37.63;17.65;;;6.50;99.90;;;;;;5084417;28;20044;-78
2022/01/19 00:13:39;;;;;;;52.40;18.35;;;6.50;99.90;;;;;;5081858;28;20032;-76
2022/01/19 00:16:05;;;;;;;39.75;17.38;;;6.50;99.90;;;;;;5083448;28;20025;-75
2022/01/19 00:18:31;;;;;;;52.83;17.70;;;6.60;99.90;;;;;;5089263;28;20047;-76
2022/01/19 00:20:56;;;;;;;43.83;19.45;;;6.50;99.90;;;;;;5062647;28;20064;-76
2022/01/19 00:23:23;;;;;;;36.15;17.23;;;6.50;99.90;;;;;;5074781;28;20039;-78
2022/01/19 00:25:51;;;;;;;53.55;18.63;;;6.50;99.90;;;;;;5076866;28;20054;-77
2022/01/19 00:28:17;;;;;;;41.22;17.23;;;6.40;99.90;;;;;;5077028;28;20099;-77
2022/01/19 00:30:43;;;;;;;43.80;18.40;;;6.40;99.90;;;;;;5075628;28;20017;-77
2022/01/19 00:33:09;;;;;;;38.17;17.48;;;6.40;99.90;;;;;;5075506;28;20016;-77
2022/01/19 00:35:36;;;;;;;41.38;18.65;;;6.30;99.90;;;;;;5074851;28;20536;-79
2022/01/19 00:38:11;;;;;;;39.97;17.85;;;6.40;99.90;;;;;;5074100;28;20033;-78
2022/01/19 00:40:38;;;;;;;40.70;17.40;;;6.30;99.90;;;;;;5073933;28;20025;-76
2022/01/19 00:43:04;;;;;;;38.30;18.35;;;6.30;99.90;;;;;;5074871;28;20025;-77
2022/01/19 00:45:29;;;;;;;42.65;18.40;;;6.30;99.90;;;;;;5075308;28;20386;-76
2022/01/19 00:47:55;;;;;;;38.40;17.73;;;6.30;99.90;;;;;;5074538;28;20086;-75
2022/01/19 00:50:24;;;;;;;48.35;18.33;;;6.20;99.90;;;;;;5074607;28;20108;-77
2022/01/19 00:52:51;;;;;;;47.13;19.63;;;6.20;99.90;;;;;;5086208;28;20017;-74
2022/01/19 00:55:19;;;;;;;49.40;20.40;;;6.20;99.90;;;;;;5080674;28;20016;-73
2022/01/19 00:57:45;;;;;;;53.78;20.08;;;6.20;99.90;;;;;;5081051;28;20028;-77
2022/01/19 01:00:15;;;;;;;44.53;21.05;;;6.20;99.90;;;;;;5081789;28;20021;-76
2022/01/19 01:02:41;;;;;;;45.97;22.42;;;6.20;99.90;;;;;;5074191;28;20094;-76
2022/01/19 01:05:07;;;;;;;54.08;22.27;;;6.20;99.90;;;;;;5083101;28;20021;-75
2022/01/19 01:07:34;;;;;;;54.47;22.30;;;6.20;99.90;;;;;;5088829;28;20024;-76
2022/01/19 01:10:00;;;;;;;48.17;21.15;;;6.20;99.90;;;;;;5091036;28;20025;-76
2022/01/19 01:12:42;;;;;;;49.13;21.20;;;6.10;99.90;;;;;;5080246;28;20060;-77
2022/01/19 01:20:36;;;;;;;45.38;20.52;;;6.00;99.90;;;;;;5083790;28;20020;-79
2022/01/19 01:23:02;;;;;;;46.85;19.80;;;6.10;99.90;;;;;;5080839;28;20052;-78
2022/01/19 01:25:27;;;;;;;54.45;19.58;;;6.00;99.90;;;;;;5075597;28;20032;-78
2022/01/19 01:27:53;;;;;;;45.95;20.33;;;6.10;99.90;;;;;;5076651;28;20028;-77
2022/01/19 01:30:19;;;;;;;44.25;20.45;;;6.10;99.90;;;;;;5076511;28;20455;-77
2022/01/19 01:32:45;;;;;;;48.30;19.13;;;6.10;99.90;;;;;;5075600;28;20485;-75
2022/01/19 01:35:11;;;;;;;47.25;20.02;;;6.10;99.90;;;;;;5078406;28;20032;-77
2022/01/19 01:37:36;;;;;;;50.00;19.67;;;6.00;99.90;;;;;;5083236;28;20025;-76
2022/01/19 01:40:04;;;;;;;48.17;19.50;;;6.00;99.90;;;;;;5078068;28;20067;-79
2022/01/19 01:42:30;;;;;;;47.08;20.60;;;6.00;99.90;;;;;;5073786;28;20025;-77
2022/01/19 01:44:59;;;;;;;46.75;20.45;;;6.00;99.90;;;;;;5074839;28;20146;-77
2022/01/19 01:47:26;;;;;;;41.63;18.98;;;6.00;99.90;;;;;;5076827;28;20036;-77
2022/01/19 01:55:07;;;;;;;44.90;20.80;;;6.00;99.90;;;;;;5079799;28;20031;-78
2022/01/19 01:57:33;;;;;;;70.80;31.33;;;6.00;99.90;;;;;;5058871;28;20025;-77
2022/01/19 01:59:58;;;;;;;65.90;32.50;;;6.10;99.90;;;;;;5079899;28;20036;-76
2022/01/19 02:02:24;;;;;;;70.30;33.05;;;6.10;99.90;;;;;;5060744;28;20078;-75
2022/01/19 02:04:50;;;;;;;70.40;35.13;;;6.00;99.90;;;;;;5076219;28;20476;-77
2022/01/19 02:09:47;;;;;;;75.75;38.65;;;6.00;99.90;;;;;;5074766;28;20035;-77
2022/01/19 02:23:25;;;;;;;64.47;29.60;;;5.90;99.90;;;;;;5083590;28;20031;-80
2022/01/19 02:25:54;;;;;;;68.05;28.75;;;5.80;99.90;;;;;;5075212;28;20393;-80
2022/01/19 02:31:35;;;;;;;67.70;29.70;;;5.80;99.90;;;;;;5092372;28;20039;-81
2022/01/19 02:36:49;;;;;;;107.97;46.55;;;5.70;99.90;;;;;;5081435;28;20036;-80
2022/01/19 02:42:04;;;;;;;120.95;51.92;;;5.70;99.90;;;;;;5080560;28;20044;-81
2022/01/19 02:46:36;;;;;;;106.53;48.22;;;5.70;99.90;;;;;;5079417;28;20020;-79
2022/01/19 02:49:52;;;;;;;120.00;50.10;;;5.60;99.90;;;;;;5079236;28;20025;-78
2022/01/19 02:52:19;;;;;;;113.95;46.72;;;5.60;99.90;;;;;;5079116;28;20461;-80
2022/01/19 02:54:46;;;;;;;107.38;46.22;;;5.50;99.90;;;;;;5078947;28;20026;-80
2022/01/19 02:57:13;;;;;;;106.68;43.40;;;5.50;99.90;;;;;;5078387;28;20032;-81
2022/01/19 03:10:30;;;;;;;79.37;31.53;;;5.50;99.90;;;;;;5076660;28;20088;-79
2022/01/19 03:12:56;;;;;;;76.63;29.80;;;5.50;99.90;;;;;;5076474;28;20262;-81
2022/01/19 03:15:22;;;;;;;73.40;29.50;;;5.50;99.90;;;;;;5058390;28;20031;-81
2022/01/19 03:17:47;;;;;;;72.50;28.05;;;5.60;99.90;;;;;;5058151;28;20039;-79
2022/01/19 03:20:13;;;;;;;78.68;30.67;;;5.60;99.90;;;;;;5074371;28;20036;-78
2022/01/19 03:25:23;;;;;;;74.53;30.08;;;5.50;99.90;;;;;;5097006;28;20039;-77
2022/01/19 03:27:49;;;;;;;78.10;30.27;;;5.50;99.90;;;;;;5089102;28;20037;-80
2022/01/19 03:30:18;;;;;;;74.28;31.45;;;5.50;99.90;;;;;;5082207;28;20060;-78
2022/01/19 03:32:43;;;;;;;73.47;29.55;;;5.50;99.90;;;;;;5064236;28;20368;-80
2022/01/19 03:35:12;;;;;;;80.35;29.42;;;5.60;99.90;;;;;;5064793;28;20470;-79
2022/01/19 03:37:39;;;;;;;76.72;27.98;;;5.60;99.90;;;;;;5084892;28;20485;-79
2022/01/19 03:40:07;;;;;;;68.72;28.17;;;5.60;99.90;;;;;;5090171;28;20035;-79
2022/01/19 03:42:32;;;;;;;72.75;28.88;;;5.70;99.90;;;;;;5071912;28;20050;-80
2022/01/19 03:44:58;;;;;;;74.80;29.35;;;5.60;99.90;;;;;;5072676;28;20029;-79
2022/01/19 03:47:26;;;;;;;80.78;28.88;;;5.50;99.90;;;;;;5091017;28;20029;-78
2022/01/19 03:49:52;;;;;;;71.47;29.52;;;5.50;99.90;;;;;;5094616;28;20020;-79
2022/01/19 03:52:18;;;;;;;74.72;29.15;;;5.50;99.90;;;;;;5089237;28;20032;-79
2022/01/19 03:54:44;;;;;;;72.85;28.80;;;5.50;99.90;;;;;;5083963;28;20032;-81
2022/01/19 03:57:10;;;;;;;72.95;28.58;;;5.50;99.90;;;;;;5082018;28;20078;-79
2022/01/19 03:59:36;;;;;;;78.78;28.73;;;5.50;99.90;;;;;;5081841;28;20025;-81
2022/01/19 04:02:02;;;;;;;84.50;31.35;;;5.60;99.90;;;;;;5081800;28;20032;-80
2022/01/19 04:04:40;;;;;;;70.60;29.90;;;5.60;99.90;;;;;;5063347;28;20108;-80
2022/01/19 04:09:32;;;;;;;77.32;28.23;;;5.60;99.90;;;;;;5082232;28;20028;-80
2022/01/19 04:11:58;;;;;;;73.80;27.70;;;5.60;99.90;;;;;;5081498;28;20033;-80
2022/01/19 04:14:27;;;;;;;76.90;29.20;;;5.60;99.90;;;;;;5063628;28;20043;-78
2022/01/19 04:16:54;;;;;;;73.43;27.33;;;5.70;99.90;;;;;;5080562;28;20063;-78
2022/01/19 04:19:31;;;;;;;68.90;26.95;;;5.70;99.90;;;;;;5064398;28;20024;-79
2022/01/19 04:21:59;;;;;;;65.18;25.38;;;5.60;99.90;;;;;;5082457;28;20416;-78
2022/01/19 04:24:25;;;;;;;65.85;25.73;;;5.60;99.90;;;;;;5086412;28;20020;-78
2022/01/19 04:27:24;;;;;;;67.68;25.48;;;5.60;99.90;;;;;;5093718;28;20028;-77
2022/01/19 04:29:55;;;;;;;71.38;25.20;;;5.60;99.90;;;;;;5093229;28;20043;-77
2022/01/19 04:32:28;;;;;;;63.00;24.13;;;5.50;99.90;;;;;;5096286;28;20058;-78
2022/01/19 04:34:54;;;;;;;61.28;23.85;;;5.50;99.90;;;;;;5097797;28;20059;-76
2022/01/19 04:45:54;;;;;;;59.42;22.92;;;5.30;99.90;;;;;;5081606;28;20035;-75
2022/01/19 05:01:41;;;;;;;57.92;24.00;;;5.50;99.90;;;;;;5081592;28;20090;-79
2022/01/19 05:04:21;;;;;;;67.15;24.52;;;5.40;99.90;;;;;;5081178;28;20035;-79
2022/01/19 05:06:51;;;;;;;81.80;25.38;;;5.40;99.90;;;;;;5080683;28;20100;-78
2022/01/19 05:09:49;;;;;;;66.53;24.60;;;5.40;99.90;;;;;;5080682;28;20025;-81
2022/01/19 05:14:53;;;;;;;71.35;25.25;;;5.30;99.90;;;;;;5083752;28;20059;-79
2022/01/19 05:17:18;;;;;;;68.15;26.50;;;5.30;99.90;;;;;;5080718;28;20036;-78
2022/01/19 05:19:44;;;;;;;62.97;23.40;;;5.20;99.90;;;;;;5081231;28;20032;-78
2022/01/19 05:22:09;;;;;;;58.55;23.70;;;5.20;99.90;;;;;;5079974;28;20029;-81
2022/01/19 05:24:35;;;;;;;55.95;22.83;;;5.30;99.90;;;;;;5081996;28;20028;-79
2022/01/19 05:27:01;;;;;;;54.00;22.83;;;5.30;99.90;;;;;;5085790;28;20151;-78
2022/01/19 05:29:26;;;;;;;56.83;22.30;;;5.40;99.90;;;;;;5079157;28;20109;-76
2022/01/19 05:31:52;;;;;;;62.60;23.30;;;5.40;99.90;;;;;;5096180;28;20055;-77
2022/01/19 05:34:17;;;;;;;62.50;22.52;;;5.40;99.90;;;;;;5095955;28;20128;-78
2022/01/19 05:36:43;;;;;;;68.43;22.33;;;5.40;99.90;;;;;;5081654;28;20032;-79
2022/01/19 05:39:08;;;;;;;60.42;21.30;;;5.30;99.90;;;;;;5092179;28;20048;-78
2022/01/19 05:41:34;;;;;;;64.13;21.30;;;5.40;99.90;;;;;;5076762;28;20032;-78
2022/01/19 05:44:00;;;;;;;67.75;21.83;;;5.30;99.90;;;;;;5091081;28;20044;-78
2022/01/19 05:46:26;;;;;;;55.47;19.90;;;5.30;99.90;;;;;;5091354;28;20029;-79
2022/01/19 05:48:51;;;;;;;67.75;21.00;;;5.20;99.90;;;;;;5094510;28;20029;-76
2022/01/19 05:51:17;;;;;;;60.00;21.70;;;5.30;99.90;;;;;;5089505;28;20029;-77
2022/01/19 05:53:43;;;;;;;68.30;22.35;;;5.20;99.90;;;;;;5091332;28;20029;-77
2022/01/19 05:56:09;;;;;;;53.80;21.52;;;5.30;99.90;;;;;;5093664;28;20077;-76
2022/01/19 05:58:34;;;;;;;55.67;19.88;;;5.30;99.90;;;;;;5094405;28;20051;-77
2022/01/19 06:01:00;;;;;;;62.65;22.52;;;5.20;99.90;;;;;;5105461;23;20048;-76
2022/01/19 06:03:25;;;;;;;60.05;21.92;;;5.30;99.90;;;;;;5075234;28;20366;-76
2022/01/19 06:05:51;;;;;;;60.92;21.58;;;5.30;99.90;;;;;;5075096;28;20027;-76
2022/01/19 06:08:29;;;;;;;55.30;20.98;;;5.20;99.90;;;;;;5075507;28;20020;-76
2022/01/19 06:10:55;;;;;;;61.53;22.30;;;5.30;99.90;;;;;;5075770;28;20035;-76
2022/01/19 06:13:22;;;;;;;61.03;23.35;;;5.30;99.90;;;;;;5056580;28;20572;-76
2022/01/19 06:15:49;;;;;;;67.43;24.27;;;5.40;99.90;;;;;;5057101;28;20043;-76
2022/01/19 06:18:16;;;;;;;75.15;28.50;;;5.30;99.90;;;;;;5076207;28;20025;-76
2022/01/19 06:20:42;;;;;;;77.32;29.98;;;5.30;99.90;;;;;;5076547;28;20055;-76
2022/01/19 06:23:08;;;;;;;95.82;32.17;;;5.20;99.90;;;;;;5076378;28;20032;-77
2022/01/19 06:25:34;;;;;;;99.32;32.30;;;5.20;99.90;;;;;;5076903;28;20083;-76
2022/01/19 06:28:00;;;;;;;88.63;33.35;;;5.20;99.90;;;;;;5076720;28;20107;-76
2022/01/19 06:30:26;;;;;;;98.20;35.00;;;5.20;99.90;;;;;;5078167;28;20048;-77
2022/01/19 06:32:52;;;;;;;88.80;33.45;;;5.30;99.90;;;;;;5074395;28;20024;-77
2022/01/19 06:35:18;;;;;;;97.78;35.03;;;5.30;99.90;;;;;;5075294;28;20095;-75
2022/01/19 06:37:44;;;;;;;99.82;35.95;;;5.30;99.90;;;;;;5078505;28;20028;-77
2022/01/19 06:40:12;;;;;;;102.25;36.08;;;5.30;99.90;;;;;;5076030;28;20031;-77
2022/01/19 06:42:38;;;;;;;105.05;37.22;;;5.40;99.90;;;;;;5077272;28;20017;-76
2022/01/19 06:45:05;;;;;;;112.68;36.53;;;5.50;99.90;;;;;;5075200;28;20093;-76
2022/01/19 06:47:31;;;;;;;123.55;37.80;;;5.60;99.90;;;;;;5073799;28;20020;-76
2022/01/19 06:49:56;;;;;;;102.82;37.92;;;5.60;99.90;;;;;;5074384;28;20033;-76
2022/01/19 06:52:22;;;;;;;111.45;38.95;;;5.60;99.90;;;;;;5074263;28;20028;-77
2022/01/19 06:54:48;;;;;;;104.95;37.38;;;5.60;99.90;;;;;;5074037;28;20032;-76
2022/01/19 06:57:14;;;;;;;124.15;39.33;;;5.70;99.90;;;;;;5074590;28;20036;-75
2022/01/19 06:59:40;;;;;;;109.30;38.75;;;5.70;99.90;;;;;;5074353;28;20090;-76
2022/01/19 07:02:06;;;;;;;122.45;39.90;;;5.70;99.90;;;;;;5073720;28;20024;-75
2022/01/19 07:04:32;;;;;;;106.63;38.30;;;5.80;99.90;;;;;;5075022;28;20469;-75
2022/01/19 07:06:58;;;;;;;106.68;40.95;;;5.80;99.90;;;;;;5077699;28;20028;-75
2022/01/19 07:09:23;;;;;;;120.82;44.80;;;5.80;99.90;;;;;;5078186;28;20079;-74
2022/01/19 07:11:49;;;;;;;116.70;43.45;;;5.80;99.90;;;;;;5079391;28;20021;-76
2022/01/19 07:14:17;;;;;;;123.70;43.83;;;5.80;99.90;;;;;;5078160;28;20100;-76
2022/01/19 07:16:43;;;;;;;116.95;41.42;;;5.80;99.90;;;;;;5080824;28;20028;-77
2022/01/19 07:19:10;;;;;;;117.18;42.47;;;5.90;99.90;;;;;;5080144;28;20032;-76
2022/01/19 07:21:36;;;;;;;115.00;41.60;;;5.90;99.90;;;;;;5078366;28;20389;-77
2022/01/19 07:24:01;;;;;;;122.18;41.97;;;5.90;99.90;;;;;;5078720;28;20024;-76
2022/01/19 07:26:27;;;;;;;126.20;44.92;;;5.90;99.90;;;;;;5078469;28;20021;-76
2022/01/19 07:28:53;;;;;;;123.20;44.30;;;5.80;99.90;;;;;;5078198;28;20027;-76
2022/01/19 07:31:18;;;;;;;119.03;46.25;;;5.90;99.90;;;;;;5078509;28;20046;-77
2022/01/19 07:33:44;;;;;;;112.15;41.22;;;5.90;99.90;;;;;;5076981;28;20074;-77
2022/01/19 07:36:09;;;;;;;110.60;43.67;;;5.90;99.90;;;;;;5078009;28;20032;-76
2022/01/19 07:38:35;;;;;;;129.90;46.90;;;5.90;99.90;;;;;;5077467;28;20024;-78
2022/01/19 07:41:01;;;;;;;118.88;45.47;;;5.90;99.90;;;;;;5077450;28;20021;-76
2022/01/19 07:43:26;;;;;;;127.15;45.83;;;5.90;99.90;;;;;;5059947;28;20036;-75
2022/01/19 07:45:52;;;;;;;123.65;46.35;;;5.80;99.90;;;;;;5077277;28;20036;-75
2022/01/19 07:48:17;;;;;;;119.75;47.00;;;5.80;99.90;;;;;;5077800;28;20028;-76
2022/01/19 07:50:43;;;;;;;108.20;45.83;;;5.90;99.90;;;;;;5077829;28;20024;-75
2022/01/19 07:53:09;;;;;;;109.20;45.88;;;5.90;99.90;;;;;;5078698;28;20472;-76
2022/01/19 07:55:35;;;;;;;115.97;47.95;;;5.90;99.90;;;;;;5083151;28;20028;-76
2022/01/19 07:58:01;;;;;;;127.63;47.88;;;5.90;99.90;;;;;;5084369;28;20032;-75
2022/01/19 08:00:28;;;;;;;113.90;47.92;;;6.00;99.90;;;;;;5084512;28;20076;-75
2022/01/19 08:02:54;;;;;;;121.53;48.72;;;6.00;99.90;;;;;;5085454;28;20028;-75
2022/01/19 08:05:19;;;;;;;118.72;48.40;;;6.00;99.90;;;;;;5062774;28;20024;-75
2022/01/19 08:07:45;;;;;;;115.50;48.15;;;6.00;99.90;;;;;;5077192;28;20031;-75
2022/01/19 08:10:12;;;;;;;117.13;49.45;;;5.90;99.90;;;;;;5077488;28;20060;-76
2022/01/19 08:12:37;;;;;;;123.00;49.45;;;5.90;99.90;;;;;;5080312;28;20489;-77
2022/01/19 08:15:05;;;;;;;123.68;50.15;;;5.90;99.90;;;;;;5078212;28;20039;-77
2022/01/19 08:17:30;;;;;;;117.88;47.97;;;5.80;99.90;;;;;;5091919;28;20032;-77
2022/01/19 08:19:56;;;;;;;130.10;49.10;;;5.80;99.90;;;;;;5097781;28;20389;-76
2022/01/19 08:22:23;;;;;;;111.40;47.42;;;5.90;99.90;;;;;;5085470;28;20421;-77
2022/01/19 08:24:48;;;;;;;118.75;49.03;;;5.90;99.90;;;;;;5094706;28;20084;-76
2022/01/19 08:27:14;;;;;;;123.88;47.63;;;5.90;99.90;;;;;;5097748;28;20036;-76
2022/01/19 08:29:40;;;;;;;123.75;49.97;;;5.90;99.90;;;;;;5083518;28;20025;-76
2022/01/19 08:32:06;;;;;;;127.68;48.55;;;5.90;99.90;;;;;;5077627;28;20111;-77
2022/01/19 08:34:32;;;;;;;122.13;52.42;;;6.00;99.90;;;;;;5079161;28;20021;-76
2022/01/19 08:36:59;;;;;;;125.32;49.10;;;6.10;99.90;;;;;;5075163;28;20028;-77
2022/01/19 08:39:25;;;;;;;119.53;49.25;;;6.20;99.90;;;;;;5076862;28;20036;-76
2022/01/19 08:41:51;;;;;;;132.40;49.25;;;6.10;99.90;;;;;;5078355;28;20017;-76
2022/01/19 08:44:16;;;;;;;120.45;48.20;;;6.10;99.90;;;;;;5076868;28;20037;-76
2022/01/19 08:46:44;;;;;;;112.95;49.50;;;6.10;99.90;;;;;;5076685;28;20028;-75
2022/01/19 08:49:10;;;;;;;116.70;48.75;;;6.10;99.90;;;;;;5060917;28;20030;-77
2022/01/19 08:51:36;;;;;;;125.38;49.78;;;6.10;99.90;;;;;;5069173;28;20028;-75
2022/01/19 08:54:02;;;;;;;141.05;52.90;;;6.00;99.90;;;;;;5066380;28;20021;-76
2022/01/19 08:56:28;;;;;;;130.95;54.38;;;6.00;99.90;;;;;;5058611;28;20127;-76
2022/01/19 08:58:53;;;;;;;123.25;52.35;;;6.00;99.90;;;;;;5062437;28;20013;-75
2022/01/19 09:01:19;;;;;;;134.45;56.00;;;6.00;99.90;;;;;;5096004;28;20058;-75
2022/01/19 09:03:44;;;;;;;132.57;52.58;;;5.90;99.90;;;;;;5099450;28;20021;-75
2022/01/19 09:06:10;;;;;;;117.90;54.00;;;6.00;99.90;;;;;;5097225;28;20088;-77
2022/01/19 09:08:35;;;;;;;132.95;54.85;;;6.00;99.90;;;;;;5079615;28;20012;-77
2022/01/19 09:11:02;;;;;;;127.35;54.53;;;5.90;99.90;;;;;;5097747;28;20060;-76
2022/01/19 09:13:28;;;;;;;131.45;54.92;;;6.00;99.90;;;;;;5079344;28;20040;-76
2022/01/19 09:15:54;;;;;;;136.65;56.97;;;6.00;99.90;;;;;;5096806;28;20026;-77
2022/01/19 09:18:20;;;;;;;125.75;54.53;;;6.00;99.90;;;;;;5098125;28;20066;-76
2022/01/19 09:20:46;;;;;;;142.45;55.72;;;6.00;99.90;;;;;;5099230;28;20092;-76
2022/01/19 09:23:13;;;;;;;136.30;58.25;;;6.00;99.90;;;;;;5098606;28;20009;-76
2022/01/19 09:25:40;;;;;;;128.63;56.50;;;6.00;99.90;;;;;;5083934;28;20027;-76
2022/01/19 09:28:07;;;;;;;123.57;54.45;;;6.00;99.90;;;;;;5076302;28;20021;-78
2022/01/19 09:30:34;;;;;;;140.30;56.33;;;5.90;99.90;;;;;;5078148;28;20099;-76
2022/01/19 09:33:10;;;;;;;136.80;55.65;;;6.00;99.90;;;;;;5075986;28;20028;-76
2022/01/19 09:35:53;;;;;;;136.98;55.03;;;6.00;99.90;;;;;;5077386;28;20044;-77
2022/01/19 09:38:26;;;;;;;147.85;59.00;;;6.10;99.90;;;;;;5076394;28;20028;-77
2022/01/19 09:40:52;;;;;;;138.40;55.17;;;6.00;99.90;;;;;;5077163;28;20020;-77
2022/01/19 09:43:21;;;;;;;130.23;55.85;;;6.10;99.90;;;;;;5077590;28;20114;-77
2022/01/19 09:45:54;;;;;;;122.72;53.35;;;6.10;99.90;;;;;;5078523;28;20465;-77
2022/01/19 09:48:21;;;;;;;137.43;56.30;;;6.10;99.90;;;;;;5060835;28;20027;-77
2022/01/19 09:50:47;;;;;;;120.22;53.17;;;6.20;99.90;;;;;;5060883;28;20024;-76
2022/01/19 09:53:13;;;;;;;129.45;54.10;;;6.20;99.90;;;;;;5078004;28;20040;-77
2022/01/19 09:55:40;;;;;;;127.93;53.47;;;6.10;99.90;;;;;;5059494;28;20071;-76
2022/01/19 09:58:07;;;;;;;128.50;52.88;;;6.10;99.90;;;;;;5081580;28;20180;-75
2022/01/19 10:00:33;;;;;;;135.98;53.42;;;6.10;99.90;;;;;;5075547;28;20110;-76
2022/01/19 10:03:21;;;;;;;131.55;54.50;;;6.00;99.90;;;;;;5074910;28;20025;-76
2022/01/19 10:05:58;;;;;;;126.35;51.40;;;6.10;99.90;;;;;;5055842;28;20089;-76
2022/01/19 10:08:44;;;;;;;138.32;53.95;;;6.10;99.90;;;;;;5074045;28;20050;-75
2022/01/19 10:11:27;;;;;;;122.95;49.33;;;6.10;99.90;;;;;;5056432;28;20032;-76
2022/01/19 10:16:59;;;;;;;121.82;51.10;;;6.20;99.90;;;;;;5074453;28;20067;-76
2022/01/19 10:19:42;;;;;;;116.85;49.20;;;6.30;99.90;;;;;;5074844;28;20393;-76
2022/01/19 10:22:10;;;;;;;133.13;53.00;;;6.20;99.90;;;;;;5075458;28;20017;-75
2022/01/19 10:24:37;;;;;;;132.10;54.40;;;6.10;99.90;;;;;;5075887;28;20044;-76
2022/01/19 10:27:25;;;;;;;126.38;50.55;;;6.20;99.90;;;;;;5074186;28;20025;-74
2022/01/19 10:30:03;;;;;;;137.57;52.80;;;6.20;99.90;;;;;;5067941;28;20039;-75
2022/01/19 10:32:31;;;;;;;123.07;48.38;;;6.20;99.90;;;;;;5085593;28;20036;-76
2022/01/19 10:34:57;;;;;;;115.25;47.13;;;6.20;99.90;;;;;;5076958;28;20012;-76
2022/01/19 10:37:29;;;;;;;104.93;43.85;;;6.20;99.90;;;;;;5074884;28;20025;-76
2022/01/19 10:39:57;;;;;;;98.53;43.25;;;6.20;99.90;;;;;;5075330;28;20146;-76
2022/01/19 10:42:30;;;;;;;108.97;45.92;;;6.20;99.90;;;;;;5075412;28;20496;-75
2022/01/19 10:44:57;;;;;;;102.78;45.08;;;6.20;99.90;;;;;;5074973;28;20029;-77
2022/01/19 10:47:58;;;;;;;106.65;44.45;;;6.20;99.90;;;;;;5074641;28;20024;-75
2022/01/19 10:50:30;;;;;;;102.32;43.55;;;6.30;99.90;;;;;;5056537;28;20020;-76
2022/01/19 10:52:59;;;;;;;106.97;44.13;;;6.20;99.90;;;;;;5056427;28;20072;-76
2022/01/19 10:55:32;;;;;;;98.60;43.78;;;6.20;99.90;;;;;;5075148;28;20457;-76
2022/01/19 10:57:59;;;;;;;102.88;44.78;;;6.20;99.90;;;;;;5057613;28;20029;-76
2022/01/19 11:00:36;;;;;;;106.78;46.88;;;6.20;99.90;;;;;;5058252;28;20102;-75
2022/01/19 11:03:21;;;;;;;121.03;47.92;;;6.20;99.90;;;;;;5075699;28;20025;-75
2022/01/19 11:05:50;;;;;;;117.47;49.33;;;6.20;99.90;;;;;;5075460;28;20552;-76
2022/01/19 11:08:20;;;;;;;114.95;50.63;;;6.20;99.90;;;;;;5075386;28;20032;-76
2022/01/19 11:10:51;;;;;;;111.53;51.92;;;6.30;99.90;;;;;;5068245;28;20020;-77
2022/01/19 11:13:28;;;;;;;110.43;49.53;;;6.20;99.90;;;;;;5089418;28;20017;-76
2022/01/19 11:15:55;;;;;;;116.57;50.33;;;6.20;99.90;;;;;;5089145;28;20035;-77
2022/01/19 11:18:22;;;;;;;123.50;51.78;;;6.20;99.90;;;;;;5080355;28;20020;-78
2022/01/19 11:20:49;;;;;;;113.30;50.55;;;6.10;99.90;;;;;;5079997;28;20051;-77
2022/01/19 11:23:33;;;;;;;119.88;52.58;;;6.10;99.90;;;;;;5078114;28;20079;-77
2022/01/19 11:26:07;;;;;;;123.93;52.28;;;6.10;99.90;;;;;;5076075;28;20051;-77
2022/01/19 11:28:40;;;;;;;127.90;53.85;;;6.00;99.90;;;;;;5071108;28;20024;-76
2022/01/19 11:31:13;;;;;;;131.77;54.05;;;5.90;99.90;;;;;;5071936;28;20028;-76
2022/01/19 11:33:44;;;;;;;124.25;54.40;;;5.90;99.90;;;;;;5075531;28;20496;-77
2022/01/19 11:36:34;;;;;;;125.22;54.30;;;5.90;99.90;;;;;;5075577;28;20094;-77
2022/01/19 11:39:20;;;;;;;123.65;52.10;;;6.00;99.90;;;;;;5089636;28;20020;-77
2022/01/19 11:41:54;;;;;;;124.70;53.53;;;5.90;99.90;;;;;;5094951;28;20017;-76
2022/01/19 11:44:32;;;;;;;128.65;53.80;;;5.90;99.90;;;;;;5079465;28;20036;-77
2022/01/19 11:47:11;;;;;;;134.52;54.08;;;5.90;99.90;;;;;;5085554;28;20031;-78
2022/01/19 11:49:45;;;;;;;127.57;55.15;;;5.80;99.90;;;;;;5083670;28;20016;-77
2022/01/19 11:52:11;;;;;;;120.10;52.72;;;5.80;99.90;;;;;;5067425;28;20028;-78
2022/01/19 11:54:37;;;;;;;131.27;53.83;;;5.80;99.90;;;;;;5059979;28;20112;-77
2022/01/19 11:57:06;;;;;;;119.57;52.83;;;5.70;99.90;;;;;;5077638;28;20117;-76
2022/01/19 11:59:43;;;;;;;128.30;51.38;;;5.60;99.90;;;;;;5077648;28;20074;-76
2022/01/19 12:02:21;;;;;;;113.57;50.47;;;5.60;99.90;;;;;;5093521;23;20079;-79
2022/01/19 12:05:07;;;;;;;114.00;49.28;;;5.50;99.90;;;;;;5080913;28;20017;-77
2022/01/19 12:07:32;;;;;;;117.90;47.72;;;5.50;99.90;;;;;;5080058;28;20032;-77
2022/01/19 12:09:58;;;;;;;118.35;50.50;;;5.60;99.90;;;;;;5076954;28;20489;-79
2022/01/19 12:12:27;;;;;;;124.10;49.63;;;5.60;99.90;;;;;;5077730;28;20043;-77
2022/01/19 12:14:53;;;;;;;117.10;49.25;;;5.60;99.90;;;;;;5077508;28;20377;-81
2022/01/19 12:17:28;;;;;;;111.97;48.78;;;5.60;99.90;;;;;;5076732;28;20036;-76
2022/01/19 12:19:55;;;;;;;116.47;47.75;;;5.70;99.90;;;;;;5077231;28;20028;-78
2022/01/19 12:22:27;;;;;;;115.35;48.95;;;5.60;99.90;;;;;;5077546;28;20381;-77
2022/01/19 12:25:01;;;;;;;130.25;52.30;;;5.60;99.90;;;;;;5078191;28;20024;-78
2022/01/19 12:27:28;;;;;;;118.88;49.20;;;5.50;99.90;;;;;;5075542;28;20162;-78
2022/01/19 12:30:13;;;;;;;116.95;51.00;;;5.50;99.90;;;;;;5076301;28;20028;-78
2022/01/19 12:32:41;;;;;;;123.50;53.67;;;5.40;99.90;;;;;;5076477;28;20035;-78
2022/01/19 12:35:13;;;;;;;116.25;50.38;;;5.40;99.90;;;;;;5074223;28;20032;-78
2022/01/19 12:37:52;;;;;;;124.88;49.97;;;5.50;99.90;;;;;;5075263;28;20020;-78
2022/01/19 12:40:18;;;;;;;104.38;47.55;;;5.60;99.90;;;;;;5076844;28;20035;-79
2022/01/19 12:42:49;;;;;;;109.85;49.10;;;5.60;99.90;;;;;;5076444;28;20024;-77
2022/01/19 12:45:30;;;;;;;103.20;47.70;;;5.50;99.90;;;;;;5077042;28;20025;-78
2022/01/19 12:48:01;;;;;;;104.88;45.63;;;5.50;99.90;;;;;;5080147;28;20031;-76
2022/01/19 12:50:29;;;;;;;96.32;45.00;;;5.50;99.90;;;;;;5085328;28;20021;-78
2022/01/19 12:53:04;;;;;;;105.55;49.13;;;5.60;99.90;;;;;;5077843;28;20032;-78
2022/01/19 12:55:34;;;;;;;99.53;46.65;;;5.60;99.90;;;;;;5076657;28;20031;-77
2022/01/19 12:58:01;;;;;;;88.88;46.40;;;5.60;99.90;;;;;;5081727;28;20056;-78
2022/01/19 13:00:33;;;;;;;94.97;44.65;;;5.60;99.90;;;;;;5084936;28;20045;-79
2022/01/19 13:02:59;;;;;;;96.28;48.17;;;5.60;99.90;;;;;;5077743;28;20040;-79
2022/01/19 13:05:29;;;;;;;91.60;45.75;;;5.60;99.90;;;;;;5078176;28;20020;-78
2022/01/19 13:08:00;;;;;;;98.70;48.13;;;5.60;99.90;;;;;;5077866;28;20037;-77
2022/01/19 13:10:41;;;;;;;95.55;47.60;;;5.70;99.90;;;;;;5080992;28;20031;-76
2022/01/19 13:13:18;;;;;;;96.70;48.30;;;5.60;99.90;;;;;;5083337;28;20028;-77
2022/01/19 13:15:54;;;;;;;91.18;44.90;;;5.70;99.90;;;;;;5080878;28;20028;-77
2022/01/19 13:18:29;;;;;;;94.35;48.85;;;5.70;99.90;;;;;;5073531;28;20048;-78
2022/01/19 13:21:02;;;;;;;90.38;47.17;;;5.60;99.90;;;;;;5074631;28;20377;-77
2022/01/19 13:23:30;;;;;;;69.93;36.30;;;5.60;99.90;;;;;;5075836;28;20477;-78
2022/01/19 13:26:02;;;;;;;98.43;49.33;;;5.70;99.90;;;;;;5075129;28;20025;-79
2022/01/19 13:28:32;;;;;;;95.10;48.75;;;5.60;99.90;;;;;;5076877;28;20066;-78
2022/01/19 13:31:20;;;;;;;101.57;50.38;;;5.60;99.90;;;;;;5077773;28;20397;-79
2022/01/19 13:33:57;;;;;;;101.18;49.22;;;5.60;99.90;;;;;;5075562;28;20032;-78
2022/01/19 13:36:31;;;;;;;101.18;51.75;;;5.50;99.90;;;;;;5075412;28;20037;-77
2022/01/19 13:38:57;;;;;;;97.15;50.28;;;5.60;99.90;;;;;;5076674;28;20024;-78
2022/01/19 13:41:24;;;;;;;101.18;50.75;;;5.60;99.90;;;;;;5074529;28;20039;-76
2022/01/19 13:43:50;;;;;;;101.28;49.95;;;5.60;99.90;;;;;;5075836;28;20077;-78
2022/01/19 13:46:26;;;;;;;100.05;51.42;;;5.50;99.90;;;;;;5075087;28;20426;-76
2022/01/19 13:49:03;;;;;;;96.95;49.92;;;5.60;99.90;;;;;;5075994;28;20457;-78
2022/01/19 13:51:30;;;;;;;105.20;52.25;;;5.60;99.90;;;;;;5075567;28;20052;-77
2022/01/19 13:53:59;;;;;;;105.55;52.47;;;5.60;99.90;;;;;;5076108;28;20055;-79
2022/01/19 13:56:37;;;;;;;102.97;51.55;;;5.70;99.90;;;;;;5075479;28;20036;-77
2022/01/19 13:59:14;;;;;;;97.15;52.58;;;5.70;99.90;;;;;;5076042;28;20077;-79